Time;durP1;ratioP1;P1;durP2;ratioP2;P2;SDS_P1;SDS_P2;PMS_P1;PMS_P2;Temp;Humidity;BMP_temperature;BMP_pressure;BME280_temperature;BME280_humidity;BME280_pressure;Samples;Min_cycle;Max_cycle;Signal;HPM_P1;HPM_P2
2023/12/15 00:01:20;;;;;;;;;;;4.80;87.20;;;;;;5041678;28;19929;-60
2023/12/15 00:03:53;;;;;;;;;;;4.80;87.20;;;;;;5046234;28;19925;-63
2023/12/15 00:06:26;;;;;;;;;;;4.80;87.30;;;;;;5047754;28;19986;-61
2023/12/15 00:09:06;;;;;;;;;;;4.80;87.10;;;;;;5045046;28;19939;-61
2023/12/15 00:11:40;;;;;;;;;;;4.80;87.20;;;;;;5041052;28;19982;-61
2023/12/15 00:14:19;;;;;;;;;;;4.80;87.10;;;;;;5046082;28;19928;-61
2023/12/15 00:16:53;;;;;;;;;;;4.80;87.10;;;;;;5037745;28;19925;-62
2023/12/15 00:19:26;;;;;;;;;;;4.80;87.10;;;;;;5047050;28;19939;-61
2023/12/15 00:21:59;;;;;;;;;;;4.80;87.20;;;;;;5044197;28;19944;-59
2023/12/15 00:24:33;;;;;;;;;;;4.80;87.20;;;;;;5047598;28;19925;-60
2023/12/15 00:27:07;;;;;;;;;;;4.80;87.30;;;;;;5049861;28;19929;-60
2023/12/15 00:29:40;;;;;;;;;;;4.80;87.60;;;;;;5049358;28;19983;-61
2023/12/15 00:32:13;;;;;;;;;;;4.80;87.50;;;;;;5036669;28;20268;-60
2023/12/15 00:34:46;;;;;;;;;;;4.90;87.50;;;;;;5048624;28;20333;-60
2023/12/15 00:37:20;;;;;;;;;;;4.80;87.50;;;;;;5049606;28;19954;-61
2023/12/15 00:39:54;;;;;;;;;;;4.90;87.50;;;;;;5045709;28;19951;-59
2023/12/15 00:42:21;;;;;;;;;;;4.90;87.40;;;;;;5048053;28;19928;-60
2023/12/15 00:44:56;;;;;;;;;;;4.80;87.40;;;;;;5048600;28;19951;-59
2023/12/15 00:47:29;;;;;;;;;;;4.80;87.60;;;;;;5049892;28;20022;-61
2023/12/15 00:50:03;;;;;;;;;;;4.90;87.60;;;;;;5044589;28;19931;-61
2023/12/15 00:52:36;;;;;;;;;;;4.80;87.50;;;;;;5044417;28;19940;-60
2023/12/15 00:55:10;;;;;;;;;;;4.80;87.60;;;;;;5062534;28;19958;-60
2023/12/15 00:57:44;;;;;;;;;;;4.90;87.70;;;;;;5041640;28;19925;-60
2023/12/15 01:00:17;;;;;;;;;;;4.80;87.60;;;;;;5065119;28;19924;-60
2023/12/15 01:02:51;;;;;;;;;;;4.90;87.70;;;;;;5067492;28;20371;-59
2023/12/15 01:05:24;;;;;;;;;;;4.90;87.60;;;;;;5070784;28;19979;-60
2023/12/15 01:07:57;;;;;;;;;;;4.80;87.60;;;;;;5055994;28;19988;-59
2023/12/15 01:10:31;;;;;;;;;;;4.80;87.70;;;;;;5048569;28;19925;-59
2023/12/15 01:13:04;;;;;;;;;;;4.80;87.80;;;;;;5043660;28;19929;-59
2023/12/15 01:15:37;;;;;;;;;;;4.80;87.70;;;;;;5047517;28;19939;-63
2023/12/15 01:18:10;;;;;;;;;;;4.80;87.80;;;;;;5047103;28;19958;-59
2023/12/15 01:20:44;;;;;;;;;;;4.80;87.80;;;;;;5039540;28;20011;-60
2023/12/15 01:23:17;;;;;;;;;;;4.80;87.80;;;;;;5047757;28;19924;-59
2023/12/15 01:25:51;;;;;;;;;;;4.80;87.90;;;;;;5044739;28;20402;-60
2023/12/15 01:28:24;;;;;;;;;;;4.80;87.90;;;;;;5048139;28;20358;-59
2023/12/15 01:31:01;;;;;;;;;;;4.80;88.00;;;;;;5043536;28;19933;-62
2023/12/15 01:33:34;;;;;;;;;;;4.90;87.90;;;;;;5046660;28;20591;-61
2023/12/15 01:36:10;;;;;;;;;;;4.80;87.90;;;;;;5045451;28;19972;-61
2023/12/15 01:38:43;;;;;;;;;;;4.80;87.90;;;;;;5045743;28;19933;-62
2023/12/15 01:41:18;;;;;;;;;;;4.80;87.90;;;;;;5047240;28;19929;-62
2023/12/15 01:43:52;;;;;;;;;;;4.80;87.90;;;;;;5047204;28;19936;-61
2023/12/15 01:46:25;;;;;;;;;;;4.90;87.90;;;;;;5037847;28;19949;-62
2023/12/15 01:48:58;;;;;;;;;;;4.90;88.00;;;;;;5048044;28;19982;-60
2023/12/15 01:51:31;;;;;;;;;;;4.80;88.10;;;;;;5048102;28;19935;-62
2023/12/15 01:54:04;;;;;;;;;;;4.80;87.90;;;;;;5047593;28;19929;-61
2023/12/15 01:56:32;;;;;;;;;;;4.80;87.90;;;;;;5045644;28;19929;-63
2023/12/15 01:59:05;;;;;;;;;;;4.80;87.80;;;;;;5045719;28;19925;-63
2023/12/15 02:01:38;;;;;;;;;;;4.80;87.90;;;;;;5045809;28;20069;-63
2023/12/15 02:04:11;;;;;;;;;;;4.80;87.90;;;;;;5041812;28;20030;-62
2023/12/15 02:06:44;;;;;;;;;;;4.80;87.80;;;;;;5046490;28;19928;-60
2023/12/15 02:09:17;;;;;;;;;;;4.70;87.70;;;;;;5046471;28;20019;-63
2023/12/15 02:11:52;;;;;;;;;;;4.70;87.60;;;;;;5047868;28;20022;-61
2023/12/15 02:14:26;;;;;;;;;;;4.70;87.70;;;;;;5047793;28;19925;-62
2023/12/15 02:16:59;;;;;;;;;;;4.70;87.70;;;;;;5048197;28;19983;-62
2023/12/15 02:19:32;;;;;;;;;;;4.70;87.70;;;;;;5061554;28;19928;-62
2023/12/15 02:22:05;;;;;;;;;;;4.70;87.70;;;;;;5065383;28;20022;-61
2023/12/15 02:24:39;;;;;;;;;;;4.70;87.70;;;;;;5067998;28;19933;-63
2023/12/15 02:27:13;;;;;;;;;;;4.70;87.70;;;;;;5061245;28;19925;-62
2023/12/15 02:29:49;;;;;;;;;;;4.70;87.80;;;;;;5064689;28;19929;-61
2023/12/15 02:32:22;;;;;;;;;;;4.70;87.80;;;;;;5066574;28;20029;-63
2023/12/15 02:35:02;;;;;;;;;;;4.70;87.90;;;;;;5056898;28;19974;-61
2023/12/15 02:37:41;;;;;;;;;;;4.60;87.90;;;;;;5062091;28;19933;-62
2023/12/15 02:40:16;;;;;;;;;;;4.60;88.00;;;;;;5044557;28;19936;-67
2023/12/15 02:42:50;;;;;;;;;;;4.70;88.00;;;;;;5046211;28;20375;-66
2023/12/15 02:45:23;;;;;;;;;;;4.70;88.00;;;;;;5045291;28;20353;-66
2023/12/15 02:47:56;;;;;;;;;;;4.70;88.00;;;;;;5045589;28;20002;-67
2023/12/15 02:50:29;;;;;;;;;;;4.70;87.90;;;;;;5046748;28;19928;-67
2023/12/15 02:53:02;;;;;;;;;;;4.70;87.90;;;;;;5045429;28;19936;-67
2023/12/15 02:55:36;;;;;;;;;;;4.70;87.80;;;;;;5045059;28;19939;-67
2023/12/15 02:58:13;;;;;;;;;;;4.70;87.90;;;;;;5040989;28;20019;-66
2023/12/15 03:00:47;;;;;;;;;;;4.70;87.80;;;;;;5044563;28;19924;-67
2023/12/15 03:03:20;;;;;;;;;;;4.70;87.70;;;;;;5043422;28;19935;-67
2023/12/15 03:05:53;;;;;;;;;;;4.60;87.80;;;;;;5047286;28;20447;-67
2023/12/15 03:08:27;;;;;;;;;;;4.60;87.80;;;;;;5047745;28;20407;-67
2023/12/15 03:11:03;;;;;;;;;;;4.60;87.80;;;;;;5058425;28;21039;-68
2023/12/15 03:13:36;;;;;;;;;;;4.60;87.90;;;;;;5067228;28;19978;-66
2023/12/15 03:16:10;;;;;;;;;;;4.60;88.00;;;;;;5064725;28;19932;-66
2023/12/15 03:18:43;;;;;;;;;;;4.60;87.90;;;;;;5064187;28;19932;-67
2023/12/15 03:21:16;;;;;;;;;;;4.60;87.90;;;;;;5066629;28;19924;-67
2023/12/15 03:23:49;;;;;;;;;;;4.70;87.90;;;;;;5064886;28;19931;-68
2023/12/15 03:26:23;;;;;;;;;;;4.60;88.00;;;;;;5067434;28;19931;-67
2023/12/15 03:28:56;;;;;;;;;;;4.60;88.00;;;;;;5065131;28;19939;-65
2023/12/15 03:31:29;;;;;;;;;;;4.60;88.00;;;;;;5064858;28;19936;-68
2023/12/15 03:34:02;;;;;;;;;;;4.60;88.00;;;;;;5066733;28;19928;-67
2023/12/15 03:36:38;;;;;;;;;;;4.60;88.00;;;;;;5060862;28;20440;-67
2023/12/15 03:39:11;;;;;;;;;;;4.60;88.10;;;;;;5050348;28;19944;-68
2023/12/15 03:41:45;;;;;;;;;;;4.70;88.20;;;;;;5045335;28;19960;-67
2023/12/15 03:44:19;;;;;;;;;;;4.70;88.20;;;;;;5044554;28;20356;-66
2023/12/15 03:46:52;;;;;;;;;;;4.60;88.10;;;;;;5042875;28;19978;-66
2023/12/15 03:49:25;;;;;;;;;;;4.70;88.20;;;;;;5046371;28;19935;-73
2023/12/15 03:51:58;;;;;;;;;;;4.60;88.20;;;;;;5044733;28;19932;-70
2023/12/15 03:54:31;;;;;;;;;;;4.60;88.40;;;;;;5046383;28;19970;-70
2023/12/15 03:57:05;;;;;;;;;;;4.60;88.40;;;;;;5045124;28;19932;-70
2023/12/15 03:59:39;;;;;;;;;;;4.70;88.40;;;;;;5043188;28;19925;-70
2023/12/15 04:02:14;;;;;;;;;;;4.70;88.30;;;;;;5049722;28;20019;-71
2023/12/15 04:04:48;;;;;;;;;;;4.70;88.30;;;;;;5047309;28;20374;-70
2023/12/15 04:07:21;;;;;;;;;;;4.70;88.30;;;;;;5051652;28;19924;-71
2023/12/15 04:09:54;;;;;;;;;;;4.70;88.30;;;;;;5049512;28;20015;-70
2023/12/15 04:12:28;;;;;;;;;;;4.70;88.30;;;;;;5050131;28;19929;-71
2023/12/15 04:15:01;;;;;;;;;;;4.70;88.20;;;;;;5050869;28;19924;-71
2023/12/15 04:17:34;;;;;;;;;;;4.70;88.30;;;;;;5050268;28;19932;-70
2023/12/15 04:20:08;;;;;;;;;;;4.70;88.40;;;;;;5048494;28;19925;-70
2023/12/15 04:22:41;;;;;;;;;;;4.70;88.40;;;;;;5051780;28;20019;-70
2023/12/15 04:25:17;;;;;;;;;;;4.70;88.50;;;;;;5049255;28;19933;-70
2023/12/15 04:27:51;;;;;;;;;;;4.60;88.40;;;;;;5046888;28;19933;-70
2023/12/15 04:30:24;;;;;;;;;;;4.70;88.60;;;;;;5050952;28;21551;-70
2023/12/15 04:32:57;;;;;;;;;;;4.70;88.50;;;;;;5047245;28;20020;-70
2023/12/15 04:35:30;;;;;;;;;;;4.70;88.50;;;;;;5047995;28;20027;-70
2023/12/15 04:38:03;;;;;;;;;;;4.60;88.60;;;;;;5048658;28;20012;-71
2023/12/15 04:40:36;;;;;;;;;;;4.60;88.60;;;;;;5049885;28;19928;-70
2023/12/15 04:43:04;;;;;;;;;;;4.60;88.60;;;;;;5049791;28;20451;-71
2023/12/15 04:45:37;;;;;;;;;;;4.70;88.60;;;;;;5049258;28;20279;-69
2023/12/15 04:48:10;;;;;;;;;;;4.60;88.60;;;;;;5048680;28;20003;-70
2023/12/15 04:50:43;;;;;;;;;;;4.70;88.50;;;;;;5049441;28;19924;-70
2023/12/15 04:53:16;;;;;;;;;;;4.60;88.50;;;;;;5050041;28;19929;-72
2023/12/15 04:55:49;;;;;;;;;;;4.60;88.60;;;;;;5050425;28;19925;-71
2023/12/15 04:58:23;;;;;;;;;;;4.60;88.60;;;;;;5050198;28;19929;-71
2023/12/15 05:00:56;;;;;;;;;;;4.70;88.50;;;;;;5042988;28;19940;-70
2023/12/15 05:03:23;;;;;;;;;;;4.60;88.80;;;;;;5050181;28;20012;-70
2023/12/15 05:09:32;;;;;;;;;;;4.60;88.60;;;;;;5068805;28;20443;-70
2023/12/15 05:12:06;;;;;;;;;;;4.60;88.60;;;;;;5050085;28;20019;-72
2023/12/15 05:14:34;;;;;;;;;;;4.60;88.50;;;;;;5051042;28;19928;-70
2023/12/15 05:17:07;;;;;;;;;;;4.60;88.60;;;;;;5042543;28;19986;-71
2023/12/15 05:19:40;;;;;;;;;;;4.60;88.60;;;;;;5050251;28;19932;-70
2023/12/15 05:22:13;;;;;;;;;;;4.60;88.60;;;;;;5048265;28;19943;-71
2023/12/15 05:24:46;;;;;;;;;;;4.70;88.60;;;;;;5049523;28;20005;-71
2023/12/15 05:27:19;;;;;;;;;;;4.70;88.50;;;;;;5048612;28;19929;-71
2023/12/15 05:29:47;;;;;;;;;;;4.70;88.50;;;;;;5050220;28;19937;-71
2023/12/15 05:32:20;;;;;;;;;;;4.70;88.60;;;;;;5048105;28;19929;-71
2023/12/15 05:34:53;;;;;;;;;;;4.70;88.50;;;;;;5042084;28;19932;-70
2023/12/15 05:37:26;;;;;;;;;;;4.70;88.50;;;;;;5045628;28;19929;-70
2023/12/15 05:39:53;;;;;;;;;;;4.70;88.50;;;;;;5058619;28;19924;-70
2023/12/15 05:42:26;;;;;;;;;;;4.60;88.60;;;;;;5067399;28;19928;-70
2023/12/15 05:44:54;;;;;;;;;;;4.70;88.60;;;;;;5066674;28;19931;-71
2023/12/15 05:47:27;;;;;;;;;;;4.70;88.60;;;;;;5045525;28;19940;-71
2023/12/15 05:50:00;;;;;;;;;;;4.60;88.70;;;;;;5046612;28;20016;-71
2023/12/15 05:52:33;;;;;;;;;;;4.70;88.80;;;;;;5048026;28;19928;-71
2023/12/15 05:55:07;;;;;;;;;;;4.70;88.70;;;;;;5047297;28;19928;-69
2023/12/15 05:57:40;;;;;;;;;;;4.70;88.70;;;;;;5047944;28;19925;-70
2023/12/15 06:00:21;;;;;;;;;;;4.60;88.70;;;;;;5048558;28;19925;-70
2023/12/15 06:02:54;;;;;;;;;;;4.70;88.80;;;;;;5045904;28;20020;-71
2023/12/15 06:05:28;;;;;;;;;;;4.60;88.80;;;;;;5046226;28;19929;-71
2023/12/15 06:08:01;;;;;;;;;;;4.70;88.80;;;;;;5052486;28;19925;-71
2023/12/15 06:10:35;;;;;;;;;;;4.60;88.80;;;;;;5068596;28;20366;-68
2023/12/15 06:13:09;;;;;;;;;;;4.70;88.80;;;;;;5054844;28;19967;-66
2023/12/15 06:15:37;;;;;;;;;;;4.70;88.70;;;;;;5048002;28;19959;-67
2023/12/15 06:18:10;;;;;;;;;;;4.70;88.80;;;;;;5041031;28;19924;-67
2023/12/15 06:20:43;;;;;;;;;;;4.70;88.80;;;;;;5047955;28;19959;-65
2023/12/15 06:23:16;;;;;;;;;;;4.70;88.70;;;;;;5044860;28;19933;-66
2023/12/15 06:25:49;;;;;;;;;;;4.70;88.80;;;;;;5046512;28;19925;-67
2023/12/15 06:28:22;;;;;;;;;;;4.70;88.80;;;;;;5048050;28;19924;-66
2023/12/15 06:30:56;;;;;;;;;;;4.70;88.80;;;;;;5043077;28;19925;-67
2023/12/15 06:33:30;;;;;;;;;;;4.80;88.80;;;;;;5046762;28;19928;-68
2023/12/15 06:36:03;;;;;;;;;;;4.80;88.70;;;;;;5047185;28;19928;-68
2023/12/15 06:38:36;;;;;;;;;;;4.70;88.80;;;;;;5047193;28;20015;-66
2023/12/15 06:41:09;;;;;;;;;;;4.70;88.80;;;;;;5047144;28;20353;-67
2023/12/15 06:43:43;;;;;;;;;;;4.70;88.90;;;;;;5048497;28;19925;-67
2023/12/15 06:46:28;;;;;;;;;;;4.70;88.90;;;;;;5044059;28;19924;-67
2023/12/15 06:49:01;;;;;;;;;;;4.70;89.00;;;;;;5046763;28;19925;-67
2023/12/15 06:51:34;;;;;;;;;;;4.70;89.00;;;;;;5045473;28;19924;-65
2023/12/15 06:54:07;;;;;;;;;;;4.70;89.00;;;;;;5045848;28;19935;-67
2023/12/15 06:56:40;;;;;;;;;;;4.70;88.90;;;;;;5048410;28;19931;-66
2023/12/15 06:59:13;;;;;;;;;;;4.60;88.90;;;;;;5048297;28;20475;-66
2023/12/15 07:01:48;;;;;;;;;;;4.60;88.80;;;;;;5045499;28;19928;-68
2023/12/15 07:04:23;;;;;;;;;;;4.60;88.70;;;;;;5041427;28;19971;-66
2023/12/15 07:06:56;;;;;;;;;;;4.60;88.50;;;;;;5046383;28;19933;-67
2023/12/15 07:09:29;;;;;;;;;;;4.60;88.30;;;;;;5048502;28;19924;-67
2023/12/15 07:12:02;;;;;;;;;;;4.60;88.20;;;;;;5047881;28;19967;-65
2023/12/15 07:14:36;;;;;;;;;;;4.60;88.20;;;;;;5063546;28;20010;-68
2023/12/15 07:17:10;;;;;;;;;;;4.60;88.20;;;;;;5046397;28;20553;-67
2023/12/15 07:19:44;;;;;;;;;;;4.50;88.30;;;;;;5046292;28;19968;-63
2023/12/15 07:22:17;;;;;;;;;;;4.60;88.40;;;;;;5045561;28;19924;-63
2023/12/15 07:24:50;;;;;;;;;;;4.50;88.50;;;;;;5045566;28;20009;-63
2023/12/15 07:27:23;;;;;;;;;;;4.60;88.60;;;;;;5047526;28;20112;-62
2023/12/15 07:29:56;;;;;;;;;;;4.50;88.60;;;;;;5048210;28;20014;-61
2023/12/15 07:32:30;;;;;;;;;;;4.50;88.80;;;;;;5046687;28;20039;-61
2023/12/15 07:35:04;;;;;;;;;;;4.50;88.80;;;;;;5047345;28;19932;-61
2023/12/15 07:37:38;;;;;;;;;;;4.60;88.80;;;;;;5062179;28;19924;-62
2023/12/15 07:40:12;;;;;;;;;;;4.60;88.70;;;;;;5067795;28;19925;-62
2023/12/15 07:42:45;;;;;;;;;;;4.60;88.80;;;;;;5070508;28;19940;-62
2023/12/15 07:45:12;;;;;;;;;;;4.60;88.90;;;;;;5070897;28;19929;-61
2023/12/15 07:47:53;;;;;;;;;;;4.60;88.80;;;;;;5070802;28;19925;-61
2023/12/15 07:50:26;;;;;;;;;;;4.60;88.90;;;;;;5068565;28;20020;-62
2023/12/15 07:52:59;;;;;;;;;;;4.60;88.90;;;;;;5066989;28;19932;-63
2023/12/15 07:55:32;;;;;;;;;;;4.60;89.00;;;;;;5069572;28;19928;-61
2023/12/15 07:58:05;;;;;;;;;;;4.70;89.10;;;;;;5050598;28;20011;-61
2023/12/15 08:00:38;;;;;;;;;;;4.60;89.10;;;;;;5052102;28;19971;-61
2023/12/15 08:03:12;;;;;;;;;;;4.60;89.20;;;;;;5050859;28;20016;-61
2023/12/15 08:05:46;;;;;;;;;;;4.60;89.20;;;;;;5051681;28;20444;-62
2023/12/15 08:08:19;;;;;;;;;;;4.70;89.20;;;;;;5048839;28;19928;-62
2023/12/15 08:10:46;;;;;;;;;;;4.70;89.20;;;;;;5050039;28;19933;-62
2023/12/15 08:13:20;;;;;;;;;;;4.70;89.30;;;;;;5051075;28;20023;-61
2023/12/15 08:15:53;;;;;;;;;;;4.70;89.20;;;;;;5049270;28;19931;-60
2023/12/15 08:18:27;;;;;;;;;;;4.70;89.20;;;;;;5050834;28;20379;-61
2023/12/15 08:21:01;;;;;;;;;;;4.70;89.20;;;;;;5050424;28;19928;-60
2023/12/15 08:23:34;;;;;;;;;;;4.70;89.20;;;;;;5049514;28;20310;-60
2023/12/15 08:26:07;;;;;;;;;;;4.70;89.20;;;;;;5049840;28;19936;-61
2023/12/15 08:28:40;;;;;;;;;;;4.70;89.30;;;;;;5049050;28;19928;-60
2023/12/15 08:31:13;;;;;;;;;;;4.70;89.30;;;;;;5049268;28;20346;-63
2023/12/15 08:33:55;;;;;;;;;;;4.70;89.40;;;;;;5047639;28;19939;-60
2023/12/15 08:36:28;;;;;;;;;;;4.80;89.30;;;;;;5049235;28;19933;-62
2023/12/15 08:39:01;;;;;;;;;;;4.80;89.30;;;;;;5047862;28;20023;-62
2023/12/15 08:41:34;;;;;;;;;;;4.80;89.40;;;;;;5048814;28;19928;-62
2023/12/15 08:44:07;;;;;;;;;;;4.80;89.50;;;;;;5048420;28;19933;-61
2023/12/15 08:46:40;;;;;;;;;;;4.80;89.50;;;;;;5048062;28;19956;-63
2023/12/15 08:49:14;;;;;;;;;;;4.70;89.60;;;;;;5049970;28;19929;-61
2023/12/15 08:51:47;;;;;;;;;;;4.80;89.60;;;;;;5046611;28;19932;-67
2023/12/15 08:54:20;;;;;;;;;;;4.80;89.60;;;;;;5051874;28;20337;-66
2023/12/15 08:56:53;;;;;;;;;;;4.90;89.60;;;;;;5048445;28;19948;-67
2023/12/15 08:59:26;;;;;;;;;;;5.00;89.40;;;;;;5045812;28;20007;-66
2023/12/15 09:01:53;;;;;;;;;;;5.00;89.30;;;;;;5044923;28;19933;-66
2023/12/15 09:04:27;;;;;;;;;;;5.00;89.40;;;;;;5044130;28;19928;-66
2023/12/15 09:07:00;;;;;;;;;;;5.10;89.30;;;;;;5047942;28;19924;-65
2023/12/15 09:09:34;;;;;;;;;;;5.10;89.30;;;;;;5049429;28;20283;-67
2023/12/15 09:12:08;;;;;;;;;;;5.00;89.50;;;;;;5048984;28;20277;-67
2023/12/15 09:14:41;;;;;;;;;;;5.00;89.50;;;;;;5064875;28;19932;-67
2023/12/15 09:17:11;;;;;;;;;;;5.00;89.60;;;;;;5066560;28;19939;-67
2023/12/15 09:19:45;;;;;;;;;;;5.10;89.60;;;;;;5066391;28;20391;-67
2023/12/15 09:22:19;;;;;;;;;;;5.10;89.60;;;;;;5048720;28;19982;-67
2023/12/15 09:24:52;;;;;;;;;;;5.10;89.70;;;;;;5049782;28;19935;-66
2023/12/15 09:27:25;;;;;;;;;;;5.20;89.60;;;;;;5049593;28;19932;-66
2023/12/15 09:29:59;;;;;;;;;;;5.30;89.50;;;;;;5047960;28;19929;-66
2023/12/15 09:32:32;;;;;;;;;;;5.40;89.50;;;;;;5047712;28;19932;-65
2023/12/15 09:35:07;;;;;;;;;;;5.50;89.60;;;;;;5047195;28;20401;-66
2023/12/15 09:37:40;;;;;;;;;;;5.50;89.40;;;;;;5064938;28;19936;-65
2023/12/15 09:40:14;;;;;;;;;;;5.50;89.20;;;;;;5066142;28;19928;-65
2023/12/15 09:42:47;;;;;;;;;;;5.50;89.40;;;;;;5067676;28;19928;-68
2023/12/15 09:45:20;;;;;;;;;;;5.50;89.30;;;;;;5069291;28;19943;-67
2023/12/15 09:47:53;;;;;;;;;;;5.50;89.50;;;;;;5057630;28;19929;-65
2023/12/15 09:50:32;;;;;;;;;;;5.50;89.50;;;;;;5047605;28;19929;-66
2023/12/15 09:53:05;;;;;;;;;;;5.60;89.60;;;;;;5046990;28;19936;-66
2023/12/15 09:55:38;;;;;;;;;;;5.60;89.60;;;;;;5049338;28;19972;-67
2023/12/15 09:58:11;;;;;;;;;;;5.60;89.40;;;;;;5046337;28;19994;-67
2023/12/15 10:00:44;;;;;;;;;;;5.70;89.40;;;;;;5050230;28;19951;-70
2023/12/15 10:03:11;;;;;;;;;;;5.70;89.30;;;;;;5048121;28;19928;-70
2023/12/15 10:05:46;;;;;;;;;;;5.70;89.30;;;;;;5049026;28;19935;-70
2023/12/15 10:08:22;;;;;;;;;;;5.70;89.20;;;;;;5044062;28;20002;-71
2023/12/15 10:11:02;;;;;;;;;;;5.70;89.10;;;;;;5045648;28;20311;-70
2023/12/15 10:13:35;;;;;;;;;;;5.70;89.10;;;;;;5048931;28;20002;-71
2023/12/15 10:16:09;;;;;;;;;;;5.70;89.00;;;;;;5041366;28;19929;-71
2023/12/15 10:18:43;;;;;;;;;;;5.70;89.10;;;;;;5047483;28;20015;-71
2023/12/15 10:21:17;;;;;;;;;;;5.60;89.30;;;;;;5067814;28;19952;-70
2023/12/15 10:23:50;;;;;;;;;;;5.70;89.30;;;;;;5064827;28;19929;-70
2023/12/15 10:40:44;;;;;;;;;;;5.90;89.40;;;;;;5046254;28;19940;-70
2023/12/15 10:43:18;;;;;;;;;;;5.80;89.40;;;;;;5047214;28;19939;-70
2023/12/15 10:45:51;;;;;;;;;;;5.90;89.40;;;;;;5048601;28;19928;-70
2023/12/15 10:48:26;;;;;;;;;;;5.90;89.40;;;;;;5066559;28;19924;-70
2023/12/15 10:51:00;;;;;;;;;;;5.90;89.40;;;;;;5065428;28;19935;-71
2023/12/15 10:53:34;;;;;;;;;;;5.90;89.50;;;;;;5066427;28;19925;-70
2023/12/15 10:56:02;;;;;;;;;;;5.90;89.60;;;;;;5067637;28;20005;-69
2023/12/15 10:58:35;;;;;;;;;;;5.90;89.60;;;;;;5062741;28;19933;-71
2023/12/15 11:01:09;;;;;;;;;;;5.90;89.70;;;;;;5066281;28;19928;-69
2023/12/15 11:03:42;;;;;;;;;;;5.90;89.80;;;;;;5067922;28;19924;-70
2023/12/15 11:06:25;;;;;;;;;;;5.90;89.90;;;;;;5059226;28;19930;-70
2023/12/15 11:09:00;;;;;;;;;;;5.90;90.10;;;;;;5054743;28;20261;-71
2023/12/15 11:11:35;;;;;;;;;;;6.00;90.10;;;;;;5048737;28;19932;-62
2023/12/15 11:14:09;;;;;;;;;;;6.00;90.10;;;;;;5047726;28;19932;-61
2023/12/15 11:16:45;;;;;;;;;;;6.00;90.30;;;;;;5044693;28;19932;-62
2023/12/15 11:19:18;;;;;;;;;;;5.90;90.40;;;;;;5048508;28;19979;-61
2023/12/15 11:22:09;;;;;;;;;;;6.00;90.40;;;;;;5067069;28;23970;-62
2023/12/15 11:24:49;;;;;;;;;;;6.10;90.20;;;;;;5067599;28;19924;-62
2023/12/15 11:27:24;;;;;;;;;;;6.10;90.30;;;;;;5067202;28;20355;-62
2023/12/15 11:29:59;;;;;;;;;;;6.10;90.40;;;;;;5065618;28;19932;-61
2023/12/15 11:32:34;;;;;;;;;;;6.10;90.30;;;;;;5044532;28;19932;-62
2023/12/15 11:35:26;;;;;;;;;;;6.10;90.30;;;;;;5046358;28;20687;-61
2023/12/15 11:37:59;;;;;;;;;;;6.10;90.50;;;;;;5066187;28;19933;-61
2023/12/15 11:40:32;;;;;;;;;;;6.10;90.30;;;;;;5060155;28;19928;-62
2023/12/15 11:43:06;;;;;;;;;;;6.20;90.30;;;;;;5045632;28;19928;-60
2023/12/15 11:45:33;;;;;;;;;;;6.20;90.20;;;;;;5045438;28;19970;-61
2023/12/15 11:48:06;;;;;;;;;;;6.20;90.30;;;;;;5046573;28;19925;-61
2023/12/15 11:50:44;;;;;;;;;;;6.30;90.30;;;;;;5045795;28;19975;-61
2023/12/15 11:53:18;;;;;;;;;;;6.30;90.40;;;;;;5045295;28;20457;-61
2023/12/15 11:55:51;;;;;;;;;;;6.30;90.30;;;;;;5043775;28;19979;-61
2023/12/15 11:58:26;;;;;;;;;;;6.40;90.30;;;;;;5045699;28;19935;-61
2023/12/15 12:01:05;;;;;;;;;;;6.40;90.10;;;;;;5047146;28;19925;-62
2023/12/15 12:03:38;;;;;;;;;;;6.40;90.20;;;;;;5047094;28;19933;-61
2023/12/15 12:06:11;;;;;;;;;;;6.50;90.20;;;;;;5045454;28;20557;-62
2023/12/15 12:08:44;;;;;;;;;;;6.40;90.10;;;;;;5046985;28;19947;-62
2023/12/15 12:11:17;;;;;;;;;;;6.50;90.20;;;;;;5043604;28;20814;-62
2023/12/15 12:13:57;;;;;;;;;;;6.40;90.20;;;;;;5046512;28;19929;-61
2023/12/15 12:16:33;;;;;;;;;;;6.40;90.40;;;;;;5044941;28;20376;-66
2023/12/15 12:19:06;;;;;;;;;;;6.40;90.40;;;;;;5048913;28;20281;-60
2023/12/15 12:21:39;;;;;;;;;;;6.40;90.30;;;;;;5049367;28;19986;-74
2023/12/15 12:24:12;;;;;;;;;;;6.40;90.40;;;;;;5050915;28;20028;-76
2023/12/15 12:26:46;;;;;;;;;;;6.40;90.30;;;;;;5051419;28;20445;-74
2023/12/15 12:29:21;;;;;;;;;;;6.40;90.40;;;;;;5071620;28;20295;-73
2023/12/15 12:31:54;;;;;;;;;;;6.40;90.40;;;;;;5072307;28;20817;-72
2023/12/15 12:34:27;;;;;;;;;;;6.40;90.30;;;;;;5067393;28;19932;-74
2023/12/15 12:37:00;;;;;;;;;;;6.40;90.30;;;;;;5065134;28;19928;-71
2023/12/15 12:39:33;;;;;;;;;;;6.40;90.40;;;;;;5063776;28;19929;-76
2023/12/15 12:42:08;;;;;;;;;;;6.40;90.50;;;;;;5065255;28;19967;-73
2023/12/15 12:44:36;;;;;;;;;;;6.40;90.50;;;;;;5049193;28;19932;-74
2023/12/15 12:47:09;;;;;;;;;;;6.40;90.40;;;;;;5041991;28;19935;-74
2023/12/15 12:49:44;;;;;;;;;;;6.40;90.50;;;;;;5046153;28;19935;-74
2023/12/15 12:52:18;;;;;;;;;;;6.40;90.50;;;;;;5043494;28;19925;-74
2023/12/15 12:54:51;;;;;;;;;;;6.40;90.40;;;;;;5041433;28;19936;-74
2023/12/15 12:57:30;;;;;;;;;;;6.50;90.50;;;;;;5045404;28;19937;-74
2023/12/15 13:00:08;;;;;;;;;;;6.40;90.30;;;;;;5049061;28;19975;-73
2023/12/15 13:02:42;;;;;;;;;;;6.40;90.40;;;;;;5064505;28;19924;-73
2023/12/15 13:05:15;;;;;;;;;;;6.40;90.40;;;;;;5065879;28;20011;-73
2023/12/15 13:07:48;;;;;;;;;;;6.40;90.50;;;;;;5066244;28;19940;-73
2023/12/15 13:10:21;;;;;;;;;;;6.40;90.60;;;;;;5071284;28;19928;-76
2023/12/15 13:12:55;;;;;;;;;;;6.30;90.70;;;;;;5065880;28;19933;-73
2023/12/15 13:15:30;;;;;;;;;;;6.40;90.60;;;;;;5068349;28;19928;-71
2023/12/15 13:18:03;;;;;;;;;;;6.40;90.50;;;;;;5047321;28;19935;-73
2023/12/15 13:20:37;;;;;;;;;;;6.40;90.70;;;;;;5045585;28;19964;-70
2023/12/15 13:23:10;;;;;;;;;;;6.40;90.60;;;;;;5049298;28;19925;-72
2023/12/15 13:25:43;;;;;;;;;;;6.50;90.60;;;;;;5047200;28;19968;-75
2023/12/15 13:28:18;;;;;;;;;;;6.40;90.60;;;;;;5050368;28;19925;-73
2023/12/15 13:30:55;;;;;;;;;;;6.50;90.70;;;;;;5049706;28;20452;-61
2023/12/15 13:33:28;;;;;;;;;;;6.50;90.70;;;;;;5048404;28;19978;-61
2023/12/15 13:36:01;;;;;;;;;;;6.50;90.70;;;;;;5047385;28;19970;-62
2023/12/15 13:38:34;;;;;;;;;;;6.50;90.70;;;;;;5046890;28;19925;-61
2023/12/15 13:41:07;;;;;;;;;;;6.50;90.80;;;;;;5048463;28;20445;-61
2023/12/15 13:43:42;;;;;;;;;;;6.50;90.80;;;;;;5047738;28;19924;-61
2023/12/15 13:46:19;;;;;;;;;;;6.40;90.80;;;;;;5047655;28;19976;-61
2023/12/15 13:48:54;;;;;;;;;;;6.50;90.90;;;;;;5046339;28;19925;-62
2023/12/15 13:51:28;;;;;;;;;;;6.50;90.90;;;;;;5047602;28;19932;-61
2023/12/15 13:54:01;;;;;;;;;;;6.60;90.80;;;;;;5044942;28;19933;-62
2023/12/15 13:56:35;;;;;;;;;;;6.60;90.80;;;;;;5046549;28;19932;-60
2023/12/15 13:59:08;;;;;;;;;;;6.60;90.80;;;;;;5045485;28;19931;-63
2023/12/15 14:01:43;;;;;;;;;;;6.60;90.70;;;;;;5048279;28;19925;-63
2023/12/15 14:04:16;;;;;;;;;;;6.60;90.60;;;;;;5043975;28;20304;-64
2023/12/15 14:06:51;;;;;;;;;;;6.60;90.60;;;;;;5045352;28;20019;-63
2023/12/15 14:09:26;;;;;;;;;;;6.60;90.60;;;;;;5047116;28;19935;-62
2023/12/15 14:11:59;;;;;;;;;;;6.60;90.60;;;;;;5047219;28;19925;-61
2023/12/15 14:14:32;;;;;;;;;;;6.60;90.70;;;;;;5048340;28;19931;-62
2023/12/15 14:17:07;;;;;;;;;;;6.60;90.70;;;;;;5045962;28;20012;-62
2023/12/15 14:19:40;;;;;;;;;;;6.60;90.70;;;;;;5045187;28;19924;-61
2023/12/15 14:22:15;;;;;;;;;;;6.60;90.70;;;;;;5042572;28;20015;-63
2023/12/15 14:24:48;;;;;;;;;;;6.60;90.80;;;;;;5044618;28;19933;-62
2023/12/15 14:27:21;;;;;;;;;;;6.60;90.80;;;;;;5062395;28;20020;-63
2023/12/15 14:29:55;;;;;;;;;;;6.60;90.80;;;;;;5058001;28;20051;-62
2023/12/15 14:32:23;;;;;;;;;;;6.60;90.90;;;;;;5067651;28;19955;-61
2023/12/15 14:34:55;;;;;;;;;;;6.60;90.90;;;;;;5066990;28;20299;-62
2023/12/15 14:40:57;;;;;;;;;;;6.60;90.90;;;;;;5030698;28;19955;-70
2023/12/15 14:43:30;;;;;;;;;;;6.60;91.00;;;;;;5054364;28;19935;-71
2023/12/15 14:46:04;;;;;;;;;;;6.60;90.90;;;;;;5046259;28;19925;-70
2023/12/15 14:48:38;;;;;;;;;;;6.70;90.90;;;;;;5046199;28;20004;-69
2023/12/15 14:51:11;;;;;;;;;;;6.70;90.90;;;;;;5046664;28;20281;-69
2023/12/15 14:53:38;;;;;;;;;;;6.70;90.80;;;;;;5046530;28;19932;-70
2023/12/15 14:56:14;;;;;;;;;;;6.70;90.80;;;;;;5046580;28;20363;-70
2023/12/15 14:58:46;;;;;;;;;;;6.70;90.90;;;;;;5046952;28;19929;-71
2023/12/15 15:01:19;;;;;;;;;;;6.70;90.80;;;;;;5045492;28;19929;-70
2023/12/15 15:03:54;;;;;;;;;;;6.60;90.90;;;;;;5047380;28;19935;-70
2023/12/15 15:06:27;;;;;;;;;;;6.60;90.90;;;;;;5045531;28;19929;-70
2023/12/15 15:09:00;;;;;;;;;;;6.60;91.00;;;;;;5048234;28;19933;-70
2023/12/15 15:11:33;;;;;;;;;;;6.60;91.00;;;;;;5047004;28;20011;-70
2023/12/15 15:14:07;;;;;;;;;;;6.60;91.00;;;;;;5046992;28;19929;-70
2023/12/15 15:16:39;;;;;;;;;;;6.60;91.20;;;;;;5046733;28;19924;-69
2023/12/15 15:19:14;;;;;;;;;;;6.50;91.20;;;;;;5049943;28;19925;-70
2023/12/15 15:21:46;;;;;;;;;;;6.50;91.20;;;;;;5047868;28;19929;-70
2023/12/15 15:24:22;;;;;;;;;;;6.40;91.20;;;;;;5062865;28;19928;-71
2023/12/15 15:26:55;;;;;;;;;;;6.40;91.20;;;;;;5067708;28;19928;-70
2023/12/15 15:29:28;;;;;;;;;;;6.40;91.00;;;;;;5065845;28;19936;-70